sensor_id;sensor_type;location;lat;lon;timestamp;P1;durP1;ratioP1;P2;durP2;ratioP2
23258;SDS011;11798;51.528;7.240;2023-07-31T00:01:43;6.67;;;4.20;;
23258;SDS011;11798;51.528;7.240;2023-07-31T00:04:09;5.53;;;4.13;;
23258;SDS011;11798;51.528;7.240;2023-07-31T00:06:34;5.37;;;3.67;;
23258;SDS011;11798;51.528;7.240;2023-07-31T00:09:00;7.33;;;4.87;;
23258;SDS011;11798;51.528;7.240;2023-07-31T00:11:25;5.30;;;4.80;;
23258;SDS011;11798;51.528;7.240;2023-07-31T00:13:52;9.07;;;6.17;;
23258;SDS011;11798;51.528;7.240;2023-07-31T00:16:18;9.13;;;5.73;;
23258;SDS011;11798;51.528;7.240;2023-07-31T00:18:44;8.13;;;5.90;;
23258;SDS011;11798;51.528;7.240;2023-07-31T00:21:09;13.27;;;5.63;;
23258;SDS011;11798;51.528;7.240;2023-07-31T00:23:35;10.53;;;6.13;;
23258;SDS011;11798;51.528;7.240;2023-07-31T00:26:00;9.40;;;6.10;;
23258;SDS011;11798;51.528;7.240;2023-07-31T00:28:26;10.50;;;5.77;;
23258;SDS011;11798;51.528;7.240;2023-07-31T00:30:52;10.77;;;6.07;;
23258;SDS011;11798;51.528;7.240;2023-07-31T00:33:18;11.73;;;7.00;;
23258;SDS011;11798;51.528;7.240;2023-07-31T00:35:43;12.87;;;6.40;;
23258;SDS011;11798;51.528;7.240;2023-07-31T00:38:09;10.63;;;6.60;;
23258;SDS011;11798;51.528;7.240;2023-07-31T00:40:35;13.80;;;6.90;;
23258;SDS011;11798;51.528;7.240;2023-07-31T00:43:02;9.90;;;7.50;;
23258;SDS011;11798;51.528;7.240;2023-07-31T00:45:28;16.40;;;7.30;;
23258;SDS011;11798;51.528;7.240;2023-07-31T00:47:54;12.10;;;7.00;;
23258;SDS011;11798;51.528;7.240;2023-07-31T00:50:22;12.17;;;8.00;;
23258;SDS011;11798;51.528;7.240;2023-07-31T00:52:49;15.00;;;8.40;;
23258;SDS011;11798;51.528;7.240;2023-07-31T00:55:15;20.73;;;9.07;;
23258;SDS011;11798;51.528;7.240;2023-07-31T00:57:41;16.00;;;8.50;;
23258;SDS011;11798;51.528;7.240;2023-07-31T01:00:08;16.53;;;10.17;;
23258;SDS011;11798;51.528;7.240;2023-07-31T01:02:34;15.80;;;9.80;;
23258;SDS011;11798;51.528;7.240;2023-07-31T01:05:01;14.93;;;10.07;;
23258;SDS011;11798;51.528;7.240;2023-07-31T01:11:14;20.57;;;10.07;;
23258;SDS011;11798;51.528;7.240;2023-07-31T01:13:13;17.90;;;10.17;;
23258;SDS011;11798;51.528;7.240;2023-07-31T01:15:40;19.33;;;9.30;;
23258;SDS011;11798;51.528;7.240;2023-07-31T01:18:05;15.37;;;8.97;;
23258;SDS011;11798;51.528;7.240;2023-07-31T01:20:31;16.80;;;8.40;;
23258;SDS011;11798;51.528;7.240;2023-07-31T01:25:59;17.40;;;8.07;;
23258;SDS011;11798;51.528;7.240;2023-07-31T01:28:44;15.40;;;7.57;;
23258;SDS011;11798;51.528;7.240;2023-07-31T01:31:14;14.33;;;7.97;;
23258;SDS011;11798;51.528;7.240;2023-07-31T01:33:44;16.20;;;8.43;;
23258;SDS011;11798;51.528;7.240;2023-07-31T01:36:11;12.93;;;7.63;;
23258;SDS011;11798;51.528;7.240;2023-07-31T01:38:37;15.50;;;8.13;;
23258;SDS011;11798;51.528;7.240;2023-07-31T01:41:02;18.80;;;8.63;;
23258;SDS011;11798;51.528;7.240;2023-07-31T01:43:28;17.60;;;8.33;;
23258;SDS011;11798;51.528;7.240;2023-07-31T01:45:53;19.60;;;8.27;;
23258;SDS011;11798;51.528;7.240;2023-07-31T01:48:19;13.87;;;7.50;;
23258;SDS011;11798;51.528;7.240;2023-07-31T01:50:44;17.50;;;7.70;;
23258;SDS011;11798;51.528;7.240;2023-07-31T01:53:10;17.70;;;7.40;;
23258;SDS011;11798;51.528;7.240;2023-07-31T01:55:37;15.50;;;7.03;;
23258;SDS011;11798;51.528;7.240;2023-07-31T01:58:02;15.23;;;7.47;;
23258;SDS011;11798;51.528;7.240;2023-07-31T02:00:28;15.50;;;6.73;;
23258;SDS011;11798;51.528;7.240;2023-07-31T02:02:54;16.57;;;7.67;;
23258;SDS011;11798;51.528;7.240;2023-07-31T02:05:19;16.37;;;7.83;;
23258;SDS011;11798;51.528;7.240;2023-07-31T02:07:45;16.57;;;6.33;;
23258;SDS011;11798;51.528;7.240;2023-07-31T02:10:10;12.93;;;6.53;;
23258;SDS011;11798;51.528;7.240;2023-07-31T02:12:36;15.43;;;6.90;;
23258;SDS011;11798;51.528;7.240;2023-07-31T02:15:01;14.00;;;6.60;;
23258;SDS011;11798;51.528;7.240;2023-07-31T02:17:27;17.43;;;7.03;;
23258;SDS011;11798;51.528;7.240;2023-07-31T02:19:54;12.27;;;7.30;;
23258;SDS011;11798;51.528;7.240;2023-07-31T02:22:20;16.67;;;7.33;;
23258;SDS011;11798;51.528;7.240;2023-07-31T02:24:45;14.43;;;6.70;;
23258;SDS011;11798;51.528;7.240;2023-07-31T02:27:11;14.03;;;6.73;;
23258;SDS011;11798;51.528;7.240;2023-07-31T02:29:37;15.17;;;6.90;;
23258;SDS011;11798;51.528;7.240;2023-07-31T02:32:02;15.00;;;6.30;;
23258;SDS011;11798;51.528;7.240;2023-07-31T02:34:28;14.07;;;5.93;;
23258;SDS011;11798;51.528;7.240;2023-07-31T02:36:54;10.50;;;5.37;;
23258;SDS011;11798;51.528;7.240;2023-07-31T02:39:19;14.80;;;6.90;;
23258;SDS011;11798;51.528;7.240;2023-07-31T02:41:45;11.83;;;5.93;;
23258;SDS011;11798;51.528;7.240;2023-07-31T02:44:11;12.90;;;5.93;;
23258;SDS011;11798;51.528;7.240;2023-07-31T02:46:39;10.77;;;5.60;;
23258;SDS011;11798;51.528;7.240;2023-07-31T02:49:05;12.77;;;6.13;;
23258;SDS011;11798;51.528;7.240;2023-07-31T02:51:30;12.80;;;6.47;;
23258;SDS011;11798;51.528;7.240;2023-07-31T02:53:56;15.30;;;5.53;;
23258;SDS011;11798;51.528;7.240;2023-07-31T02:56:22;12.47;;;6.17;;
23258;SDS011;11798;51.528;7.240;2023-07-31T02:58:47;19.67;;;6.97;;
23258;SDS011;11798;51.528;7.240;2023-07-31T03:01:13;12.43;;;6.50;;
23258;SDS011;11798;51.528;7.240;2023-07-31T03:03:40;15.03;;;5.83;;
23258;SDS011;11798;51.528;7.240;2023-07-31T03:06:06;11.03;;;5.80;;
23258;SDS011;11798;51.528;7.240;2023-07-31T03:08:32;16.17;;;6.03;;
23258;SDS011;11798;51.528;7.240;2023-07-31T03:10:57;18.83;;;6.30;;
23258;SDS011;11798;51.528;7.240;2023-07-31T03:13:23;12.17;;;6.37;;
23258;SDS011;11798;51.528;7.240;2023-07-31T03:15:48;15.13;;;6.10;;
23258;SDS011;11798;51.528;7.240;2023-07-31T03:18:15;12.80;;;6.57;;
23258;SDS011;11798;51.528;7.240;2023-07-31T03:20:43;12.40;;;6.27;;
23258;SDS011;11798;51.528;7.240;2023-07-31T03:23:09;14.67;;;6.70;;
23258;SDS011;11798;51.528;7.240;2023-07-31T03:25:34;13.67;;;6.10;;
23258;SDS011;11798;51.528;7.240;2023-07-31T03:28:00;14.07;;;6.63;;
23258;SDS011;11798;51.528;7.240;2023-07-31T03:30:26;12.10;;;6.17;;
23258;SDS011;11798;51.528;7.240;2023-07-31T03:32:52;15.03;;;6.63;;
23258;SDS011;11798;51.528;7.240;2023-07-31T03:35:17;13.03;;;6.27;;
23258;SDS011;11798;51.528;7.240;2023-07-31T03:37:43;14.60;;;6.80;;
23258;SDS011;11798;51.528;7.240;2023-07-31T03:40:08;14.80;;;6.13;;
23258;SDS011;11798;51.528;7.240;2023-07-31T03:42:34;14.00;;;6.10;;
23258;SDS011;11798;51.528;7.240;2023-07-31T03:45:00;17.87;;;6.67;;
23258;SDS011;11798;51.528;7.240;2023-07-31T03:47:26;14.20;;;5.73;;
23258;SDS011;11798;51.528;7.240;2023-07-31T03:49:51;19.43;;;6.67;;
23258;SDS011;11798;51.528;7.240;2023-07-31T03:52:17;17.57;;;6.20;;
23258;SDS011;11798;51.528;7.240;2023-07-31T03:54:42;14.37;;;6.23;;
23258;SDS011;11798;51.528;7.240;2023-07-31T03:57:09;15.83;;;6.23;;
23258;SDS011;11798;51.528;7.240;2023-07-31T03:59:35;15.37;;;5.67;;
23258;SDS011;11798;51.528;7.240;2023-07-31T04:02:03;13.07;;;6.30;;
23258;SDS011;11798;51.528;7.240;2023-07-31T04:04:29;14.80;;;6.27;;
23258;SDS011;11798;51.528;7.240;2023-07-31T04:06:54;12.73;;;6.00;;
23258;SDS011;11798;51.528;7.240;2023-07-31T04:09:20;15.73;;;5.60;;
23258;SDS011;11798;51.528;7.240;2023-07-31T04:11:45;13.77;;;6.07;;
23258;SDS011;11798;51.528;7.240;2023-07-31T04:14:11;12.03;;;5.20;;
23258;SDS011;11798;51.528;7.240;2023-07-31T04:16:37;14.83;;;6.63;;
23258;SDS011;11798;51.528;7.240;2023-07-31T04:19:03;13.03;;;6.33;;
23258;SDS011;11798;51.528;7.240;2023-07-31T04:21:29;12.63;;;6.93;;
23258;SDS011;11798;51.528;7.240;2023-07-31T04:23:54;10.93;;;6.07;;
23258;SDS011;11798;51.528;7.240;2023-07-31T04:26:21;13.87;;;6.53;;
23258;SDS011;11798;51.528;7.240;2023-07-31T04:28:46;14.50;;;6.10;;
23258;SDS011;11798;51.528;7.240;2023-07-31T04:31:12;14.07;;;6.43;;
23258;SDS011;11798;51.528;7.240;2023-07-31T04:33:37;11.07;;;6.03;;
23258;SDS011;11798;51.528;7.240;2023-07-31T04:36:03;9.70;;;5.77;;
23258;SDS011;11798;51.528;7.240;2023-07-31T04:38:29;17.27;;;6.17;;
23258;SDS011;11798;51.528;7.240;2023-07-31T04:40:55;12.27;;;5.73;;
23258;SDS011;11798;51.528;7.240;2023-07-31T04:43:20;11.53;;;6.23;;
23258;SDS011;11798;51.528;7.240;2023-07-31T04:45:46;12.03;;;6.17;;
23258;SDS011;11798;51.528;7.240;2023-07-31T04:48:12;15.83;;;6.83;;
23258;SDS011;11798;51.528;7.240;2023-07-31T04:50:39;15.20;;;6.33;;
23258;SDS011;11798;51.528;7.240;2023-07-31T04:53:04;15.30;;;6.37;;
23258;SDS011;11798;51.528;7.240;2023-07-31T04:55:30;12.40;;;6.73;;
23258;SDS011;11798;51.528;7.240;2023-07-31T04:57:55;13.47;;;6.37;;
23258;SDS011;11798;51.528;7.240;2023-07-31T05:00:22;14.17;;;6.07;;
23258;SDS011;11798;51.528;7.240;2023-07-31T05:02:48;12.23;;;6.23;;
23258;SDS011;11798;51.528;7.240;2023-07-31T05:05:13;11.83;;;5.80;;
23258;SDS011;11798;51.528;7.240;2023-07-31T05:07:39;11.27;;;5.93;;
23258;SDS011;11798;51.528;7.240;2023-07-31T05:10:05;13.30;;;7.20;;
23258;SDS011;11798;51.528;7.240;2023-07-31T05:12:31;14.00;;;7.00;;
23258;SDS011;11798;51.528;7.240;2023-07-31T05:14:56;12.83;;;6.70;;
23258;SDS011;11798;51.528;7.240;2023-07-31T05:17:22;10.27;;;6.60;;
23258;SDS011;11798;51.528;7.240;2023-07-31T05:19:48;15.70;;;6.23;;
23258;SDS011;11798;51.528;7.240;2023-07-31T05:22:13;13.03;;;6.57;;
23258;SDS011;11798;51.528;7.240;2023-07-31T05:24:39;10.40;;;6.40;;
23258;SDS011;11798;51.528;7.240;2023-07-31T05:27:04;18.07;;;6.63;;
23258;SDS011;11798;51.528;7.240;2023-07-31T05:29:30;14.87;;;5.93;;
23258;SDS011;11798;51.528;7.240;2023-07-31T05:31:56;12.87;;;6.87;;
23258;SDS011;11798;51.528;7.240;2023-07-31T05:34:21;17.57;;;6.47;;
23258;SDS011;11798;51.528;7.240;2023-07-31T05:36:47;13.83;;;6.50;;
23258;SDS011;11798;51.528;7.240;2023-07-31T05:39:12;14.07;;;6.97;;
23258;SDS011;11798;51.528;7.240;2023-07-31T05:41:38;17.70;;;7.20;;
23258;SDS011;11798;51.528;7.240;2023-07-31T05:44:04;16.17;;;6.27;;
23258;SDS011;11798;51.528;7.240;2023-07-31T05:46:29;13.27;;;6.77;;
23258;SDS011;11798;51.528;7.240;2023-07-31T05:48:56;14.73;;;6.93;;
23258;SDS011;11798;51.528;7.240;2023-07-31T05:51:21;13.67;;;6.37;;
23258;SDS011;11798;51.528;7.240;2023-07-31T05:53:47;13.43;;;6.67;;
23258;SDS011;11798;51.528;7.240;2023-07-31T05:56:13;11.60;;;7.27;;
23258;SDS011;11798;51.528;7.240;2023-07-31T05:58:38;14.30;;;6.13;;
23258;SDS011;11798;51.528;7.240;2023-07-31T06:01:04;13.10;;;6.30;;
23258;SDS011;11798;51.528;7.240;2023-07-31T06:03:30;12.83;;;6.70;;
23258;SDS011;11798;51.528;7.240;2023-07-31T06:05:55;13.00;;;7.20;;
23258;SDS011;11798;51.528;7.240;2023-07-31T06:08:21;11.90;;;6.53;;
23258;SDS011;11798;51.528;7.240;2023-07-31T06:10:46;11.47;;;6.10;;
23258;SDS011;11798;51.528;7.240;2023-07-31T06:13:12;11.63;;;7.00;;
23258;SDS011;11798;51.528;7.240;2023-07-31T06:15:38;12.33;;;7.13;;
23258;SDS011;11798;51.528;7.240;2023-07-31T06:18:03;10.83;;;7.00;;
23258;SDS011;11798;51.528;7.240;2023-07-31T06:20:32;14.80;;;7.27;;
23258;SDS011;11798;51.528;7.240;2023-07-31T06:22:59;10.60;;;6.63;;
23258;SDS011;11798;51.528;7.240;2023-07-31T06:25:24;13.63;;;7.03;;
23258;SDS011;11798;51.528;7.240;2023-07-31T06:27:50;14.33;;;7.83;;
23258;SDS011;11798;51.528;7.240;2023-07-31T06:30:16;13.10;;;7.40;;
23258;SDS011;11798;51.528;7.240;2023-07-31T06:32:42;11.37;;;7.00;;
23258;SDS011;11798;51.528;7.240;2023-07-31T06:35:07;13.63;;;7.67;;
23258;SDS011;11798;51.528;7.240;2023-07-31T06:37:33;12.10;;;7.73;;
23258;SDS011;11798;51.528;7.240;2023-07-31T06:39:59;11.43;;;7.87;;
23258;SDS011;11798;51.528;7.240;2023-07-31T06:42:24;10.80;;;7.37;;
23258;SDS011;11798;51.528;7.240;2023-07-31T06:44:50;14.70;;;7.17;;
23258;SDS011;11798;51.528;7.240;2023-07-31T06:47:16;13.27;;;7.60;;
23258;SDS011;11798;51.528;7.240;2023-07-31T06:49:41;14.30;;;8.80;;
23258;SDS011;11798;51.528;7.240;2023-07-31T06:52:07;14.00;;;7.77;;
23258;SDS011;11798;51.528;7.240;2023-07-31T06:54:32;13.00;;;7.20;;
23258;SDS011;11798;51.528;7.240;2023-07-31T06:56:58;14.90;;;8.00;;
23258;SDS011;11798;51.528;7.240;2023-07-31T06:59:23;11.53;;;6.90;;
23258;SDS011;11798;51.528;7.240;2023-07-31T07:01:49;11.20;;;7.60;;
23258;SDS011;11798;51.528;7.240;2023-07-31T07:04:15;12.03;;;7.67;;
23258;SDS011;11798;51.528;7.240;2023-07-31T07:06:41;11.53;;;7.03;;
23258;SDS011;11798;51.528;7.240;2023-07-31T07:09:07;9.60;;;6.27;;
23258;SDS011;11798;51.528;7.240;2023-07-31T07:11:32;10.43;;;5.70;;
23258;SDS011;11798;51.528;7.240;2023-07-31T07:13:59;9.90;;;5.63;;
23258;SDS011;11798;51.528;7.240;2023-07-31T07:16:25;9.27;;;6.30;;
23258;SDS011;11798;51.528;7.240;2023-07-31T07:18:51;12.00;;;6.47;;
23258;SDS011;11798;51.528;7.240;2023-07-31T07:21:17;11.93;;;6.57;;
23258;SDS011;11798;51.528;7.240;2023-07-31T07:23:43;10.70;;;6.70;;
23258;SDS011;11798;51.528;7.240;2023-07-31T07:26:08;13.90;;;7.20;;
23258;SDS011;11798;51.528;7.240;2023-07-31T07:28:34;11.03;;;6.63;;
23258;SDS011;11798;51.528;7.240;2023-07-31T07:30:59;12.30;;;6.87;;
23258;SDS011;11798;51.528;7.240;2023-07-31T07:33:25;10.63;;;6.53;;
23258;SDS011;11798;51.528;7.240;2023-07-31T07:35:51;12.70;;;6.60;;
23258;SDS011;11798;51.528;7.240;2023-07-31T07:38:16;10.20;;;5.97;;
23258;SDS011;11798;51.528;7.240;2023-07-31T07:40:44;11.80;;;7.03;;
23258;SDS011;11798;51.528;7.240;2023-07-31T07:43:11;11.27;;;5.73;;
23258;SDS011;11798;51.528;7.240;2023-07-31T07:45:37;9.03;;;5.47;;
23258;SDS011;11798;51.528;7.240;2023-07-31T07:48:02;10.50;;;5.63;;
23258;SDS011;11798;51.528;7.240;2023-07-31T07:50:28;10.47;;;5.90;;
23258;SDS011;11798;51.528;7.240;2023-07-31T07:52:54;8.57;;;6.13;;
23258;SDS011;11798;51.528;7.240;2023-07-31T07:55:19;10.97;;;6.57;;
23258;SDS011;11798;51.528;7.240;2023-07-31T07:57:45;8.63;;;6.03;;
23258;SDS011;11798;51.528;7.240;2023-07-31T08:00:11;10.00;;;5.80;;
23258;SDS011;11798;51.528;7.240;2023-07-31T08:02:38;9.40;;;5.63;;
23258;SDS011;11798;51.528;7.240;2023-07-31T08:05:03;9.67;;;6.30;;
23258;SDS011;11798;51.528;7.240;2023-07-31T08:07:29;10.23;;;6.10;;
23258;SDS011;11798;51.528;7.240;2023-07-31T08:09:55;8.43;;;5.90;;
23258;SDS011;11798;51.528;7.240;2023-07-31T08:12:20;7.37;;;5.23;;
23258;SDS011;11798;51.528;7.240;2023-07-31T08:14:46;10.07;;;5.23;;
23258;SDS011;11798;51.528;7.240;2023-07-31T08:17:11;9.20;;;5.23;;
23258;SDS011;11798;51.528;7.240;2023-07-31T08:19:37;8.80;;;5.20;;
23258;SDS011;11798;51.528;7.240;2023-07-31T08:22:02;7.87;;;4.90;;
23258;SDS011;11798;51.528;7.240;2023-07-31T08:24:28;8.97;;;5.27;;
23258;SDS011;11798;51.528;7.240;2023-07-31T08:26:54;7.90;;;4.70;;
23258;SDS011;11798;51.528;7.240;2023-07-31T08:29:19;8.10;;;5.17;;
23258;SDS011;11798;51.528;7.240;2023-07-31T08:31:45;9.63;;;5.37;;
23258;SDS011;11798;51.528;7.240;2023-07-31T08:34:10;11.33;;;5.50;;
23258;SDS011;11798;51.528;7.240;2023-07-31T08:36:36;8.70;;;4.60;;
23258;SDS011;11798;51.528;7.240;2023-07-31T08:39:01;5.50;;;4.40;;
23258;SDS011;11798;51.528;7.240;2023-07-31T08:41:28;7.87;;;4.33;;
23258;SDS011;11798;51.528;7.240;2023-07-31T08:43:54;6.87;;;3.80;;
23258;SDS011;11798;51.528;7.240;2023-07-31T08:46:21;5.23;;;3.20;;
23258;SDS011;11798;51.528;7.240;2023-07-31T08:48:48;5.90;;;3.57;;
23258;SDS011;11798;51.528;7.240;2023-07-31T08:51:14;7.30;;;3.57;;
23258;SDS011;11798;51.528;7.240;2023-07-31T08:53:40;7.13;;;3.37;;
23258;SDS011;11798;51.528;7.240;2023-07-31T08:56:06;5.30;;;3.87;;
23258;SDS011;11798;51.528;7.240;2023-07-31T08:58:32;4.40;;;3.10;;
23258;SDS011;11798;51.528;7.240;2023-07-31T09:01:00;6.30;;;3.90;;
23258;SDS011;11798;51.528;7.240;2023-07-31T09:03:28;6.43;;;3.50;;
23258;SDS011;11798;51.528;7.240;2023-07-31T09:05:57;6.07;;;4.27;;
23258;SDS011;11798;51.528;7.240;2023-07-31T09:08:24;5.70;;;3.60;;
23258;SDS011;11798;51.528;7.240;2023-07-31T09:10:57;7.20;;;3.63;;
23258;SDS011;11798;51.528;7.240;2023-07-31T09:13:25;6.50;;;3.33;;
23258;SDS011;11798;51.528;7.240;2023-07-31T09:15:52;6.83;;;4.10;;
23258;SDS011;11798;51.528;7.240;2023-07-31T09:18:18;4.77;;;3.53;;
23258;SDS011;11798;51.528;7.240;2023-07-31T09:20:51;6.23;;;3.33;;
23258;SDS011;11798;51.528;7.240;2023-07-31T09:23:26;5.97;;;3.87;;
23258;SDS011;11798;51.528;7.240;2023-07-31T09:26:08;5.77;;;3.60;;
23258;SDS011;11798;51.528;7.240;2023-07-31T09:28:34;7.70;;;3.90;;
23258;SDS011;11798;51.528;7.240;2023-07-31T09:30:59;5.10;;;3.67;;
23258;SDS011;11798;51.528;7.240;2023-07-31T09:33:25;6.40;;;3.43;;
23258;SDS011;11798;51.528;7.240;2023-07-31T09:35:51;4.00;;;3.13;;
23258;SDS011;11798;51.528;7.240;2023-07-31T09:38:16;5.37;;;3.00;;
23258;SDS011;11798;51.528;7.240;2023-07-31T09:40:48;5.10;;;3.20;;
23258;SDS011;11798;51.528;7.240;2023-07-31T09:43:18;5.80;;;3.10;;
23258;SDS011;11798;51.528;7.240;2023-07-31T09:45:45;4.57;;;3.50;;
23258;SDS011;11798;51.528;7.240;2023-07-31T09:48:15;5.13;;;3.37;;
23258;SDS011;11798;51.528;7.240;2023-07-31T09:50:43;5.40;;;3.70;;
23258;SDS011;11798;51.528;7.240;2023-07-31T09:53:10;6.20;;;3.00;;
23258;SDS011;11798;51.528;7.240;2023-07-31T09:55:37;4.70;;;3.30;;
23258;SDS011;11798;51.528;7.240;2023-07-31T09:58:04;5.73;;;3.00;;
23258;SDS011;11798;51.528;7.240;2023-07-31T10:00:32;4.67;;;2.77;;
23258;SDS011;11798;51.528;7.240;2023-07-31T10:03:01;5.00;;;3.40;;
23258;SDS011;11798;51.528;7.240;2023-07-31T10:05:50;5.27;;;3.10;;
23258;SDS011;11798;51.528;7.240;2023-07-31T10:08:15;4.83;;;2.63;;
23258;SDS011;11798;51.528;7.240;2023-07-31T10:10:45;3.50;;;2.77;;
23258;SDS011;11798;51.528;7.240;2023-07-31T10:13:14;4.63;;;2.87;;
23258;SDS011;11798;51.528;7.240;2023-07-31T10:15:40;4.13;;;3.13;;
23258;SDS011;11798;51.528;7.240;2023-07-31T10:18:06;5.60;;;3.13;;
23258;SDS011;11798;51.528;7.240;2023-07-31T10:20:32;4.60;;;2.83;;
23258;SDS011;11798;51.528;7.240;2023-07-31T10:22:59;5.10;;;3.07;;
23258;SDS011;11798;51.528;7.240;2023-07-31T10:25:26;3.83;;;2.97;;
23258;SDS011;11798;51.528;7.240;2023-07-31T10:27:52;4.30;;;2.67;;
23258;SDS011;11798;51.528;7.240;2023-07-31T10:30:26;4.23;;;2.23;;
23258;SDS011;11798;51.528;7.240;2023-07-31T10:32:54;2.63;;;2.43;;
23258;SDS011;11798;51.528;7.240;2023-07-31T10:35:20;3.43;;;2.40;;
23258;SDS011;11798;51.528;7.240;2023-07-31T10:37:49;3.40;;;2.57;;
23258;SDS011;11798;51.528;7.240;2023-07-31T10:45:12;3.10;;;2.60;;
23258;SDS011;11798;51.528;7.240;2023-07-31T10:47:39;3.23;;;2.43;;
23258;SDS011;11798;51.528;7.240;2023-07-31T10:50:15;4.10;;;2.70;;
23258;SDS011;11798;51.528;7.240;2023-07-31T10:52:47;3.70;;;2.77;;
23258;SDS011;11798;51.528;7.240;2023-07-31T10:55:59;3.70;;;3.40;;
23258;SDS011;11798;51.528;7.240;2023-07-31T10:58:12;4.47;;;3.50;;
23258;SDS011;11798;51.528;7.240;2023-07-31T11:00:42;4.70;;;3.00;;
23258;SDS011;11798;51.528;7.240;2023-07-31T11:08:10;9.33;;;4.27;;
23258;SDS011;11798;51.528;7.240;2023-07-31T11:10:39;6.87;;;4.10;;
23258;SDS011;11798;51.528;7.240;2023-07-31T11:13:04;7.07;;;4.50;;
23258;SDS011;11798;51.528;7.240;2023-07-31T11:15:30;8.33;;;4.90;;
23258;SDS011;11798;51.528;7.240;2023-07-31T11:17:56;8.43;;;5.00;;
23258;SDS011;11798;51.528;7.240;2023-07-31T11:20:23;6.53;;;4.13;;
23258;SDS011;11798;51.528;7.240;2023-07-31T11:22:49;10.47;;;4.87;;
23258;SDS011;11798;51.528;7.240;2023-07-31T11:25:15;8.37;;;5.10;;
23258;SDS011;11798;51.528;7.240;2023-07-31T11:27:41;7.57;;;4.23;;
23258;SDS011;11798;51.528;7.240;2023-07-31T11:30:08;6.93;;;4.23;;
23258;SDS011;11798;51.528;7.240;2023-07-31T11:32:37;7.47;;;4.17;;
23258;SDS011;11798;51.528;7.240;2023-07-31T11:35:03;7.40;;;4.80;;
23258;SDS011;11798;51.528;7.240;2023-07-31T11:37:40;7.30;;;4.67;;
23258;SDS011;11798;51.528;7.240;2023-07-31T11:40:07;5.07;;;4.17;;
23258;SDS011;11798;51.528;7.240;2023-07-31T11:42:34;9.50;;;5.17;;
23258;SDS011;11798;51.528;7.240;2023-07-31T11:45:04;7.60;;;4.37;;
23258;SDS011;11798;51.528;7.240;2023-07-31T11:47:31;9.33;;;4.50;;
23258;SDS011;11798;51.528;7.240;2023-07-31T11:49:59;6.77;;;4.23;;
23258;SDS011;11798;51.528;7.240;2023-07-31T11:52:25;11.33;;;4.80;;
23258;SDS011;11798;51.528;7.240;2023-07-31T11:54:52;9.00;;;4.57;;
23258;SDS011;11798;51.528;7.240;2023-07-31T11:57:18;6.53;;;3.63;;
23258;SDS011;11798;51.528;7.240;2023-07-31T11:59:44;5.63;;;4.00;;
23258;SDS011;11798;51.528;7.240;2023-07-31T12:02:10;5.17;;;3.60;;
23258;SDS011;11798;51.528;7.240;2023-07-31T12:04:36;5.77;;;3.93;;
23258;SDS011;11798;51.528;7.240;2023-07-31T12:07:03;7.40;;;3.60;;
23258;SDS011;11798;51.528;7.240;2023-07-31T12:09:29;6.13;;;3.63;;
23258;SDS011;11798;51.528;7.240;2023-07-31T12:11:54;6.30;;;3.80;;
23258;SDS011;11798;51.528;7.240;2023-07-31T12:14:20;6.03;;;3.20;;
23258;SDS011;11798;51.528;7.240;2023-07-31T12:16:47;5.40;;;3.73;;
23258;SDS011;11798;51.528;7.240;2023-07-31T12:19:13;5.37;;;3.60;;
23258;SDS011;11798;51.528;7.240;2023-07-31T12:21:38;5.00;;;3.20;;
23258;SDS011;11798;51.528;7.240;2023-07-31T12:24:04;5.43;;;3.20;;
23258;SDS011;11798;51.528;7.240;2023-07-31T12:26:35;5.43;;;3.20;;
23258;SDS011;11798;51.528;7.240;2023-07-31T12:29:01;6.23;;;3.47;;
23258;SDS011;11798;51.528;7.240;2023-07-31T12:31:27;4.33;;;3.40;;
23258;SDS011;11798;51.528;7.240;2023-07-31T12:33:54;4.73;;;3.17;;
23258;SDS011;11798;51.528;7.240;2023-07-31T12:36:21;4.77;;;3.27;;
23258;SDS011;11798;51.528;7.240;2023-07-31T12:38:49;6.13;;;3.47;;
23258;SDS011;11798;51.528;7.240;2023-07-31T12:41:15;4.47;;;3.10;;
23258;SDS011;11798;51.528;7.240;2023-07-31T12:43:42;4.77;;;3.03;;
23258;SDS011;11798;51.528;7.240;2023-07-31T12:46:09;4.80;;;3.53;;
23258;SDS011;11798;51.528;7.240;2023-07-31T12:48:35;5.70;;;3.40;;
23258;SDS011;11798;51.528;7.240;2023-07-31T12:51:01;6.83;;;3.77;;
23258;SDS011;11798;51.528;7.240;2023-07-31T12:53:27;5.67;;;3.60;;
23258;SDS011;11798;51.528;7.240;2023-07-31T12:55:54;5.33;;;3.50;;
23258;SDS011;11798;51.528;7.240;2023-07-31T12:58:20;4.97;;;3.97;;
23258;SDS011;11798;51.528;7.240;2023-07-31T13:00:46;4.73;;;3.57;;
23258;SDS011;11798;51.528;7.240;2023-07-31T13:03:11;6.33;;;4.10;;
23258;SDS011;11798;51.528;7.240;2023-07-31T13:05:37;4.57;;;3.23;;
23258;SDS011;11798;51.528;7.240;2023-07-31T13:08:02;3.77;;;3.37;;
23258;SDS011;11798;51.528;7.240;2023-07-31T13:10:28;5.03;;;3.33;;
23258;SDS011;11798;51.528;7.240;2023-07-31T13:12:54;6.93;;;3.77;;
23258;SDS011;11798;51.528;7.240;2023-07-31T13:15:20;4.33;;;3.17;;
23258;SDS011;11798;51.528;7.240;2023-07-31T13:17:46;6.03;;;3.60;;
23258;SDS011;11798;51.528;7.240;2023-07-31T13:20:12;4.60;;;2.97;;
23258;SDS011;11798;51.528;7.240;2023-07-31T13:22:38;5.67;;;3.00;;
23258;SDS011;11798;51.528;7.240;2023-07-31T13:25:04;3.83;;;3.33;;
23258;SDS011;11798;51.528;7.240;2023-07-31T13:27:30;5.03;;;2.67;;
23258;SDS011;11798;51.528;7.240;2023-07-31T13:29:55;3.30;;;2.53;;
23258;SDS011;11798;51.528;7.240;2023-07-31T13:32:21;3.63;;;2.60;;
23258;SDS011;11798;51.528;7.240;2023-07-31T13:34:47;3.63;;;2.50;;
23258;SDS011;11798;51.528;7.240;2023-07-31T13:37:13;3.17;;;2.57;;
23258;SDS011;11798;51.528;7.240;2023-07-31T13:39:40;4.27;;;2.67;;
23258;SDS011;11798;51.528;7.240;2023-07-31T13:42:06;4.47;;;2.77;;
23258;SDS011;11798;51.528;7.240;2023-07-31T13:44:36;3.80;;;2.63;;
23258;SDS011;11798;51.528;7.240;2023-07-31T13:47:02;3.53;;;2.70;;
23258;SDS011;11798;51.528;7.240;2023-07-31T13:49:28;3.03;;;2.67;;
23258;SDS011;11798;51.528;7.240;2023-07-31T13:51:55;3.63;;;2.97;;
23258;SDS011;11798;51.528;7.240;2023-07-31T13:54:21;3.20;;;2.80;;
23258;SDS011;11798;51.528;7.240;2023-07-31T13:56:47;4.23;;;3.10;;
23258;SDS011;11798;51.528;7.240;2023-07-31T13:59:13;4.10;;;3.17;;
23258;SDS011;11798;51.528;7.240;2023-07-31T14:01:40;4.33;;;3.37;;
23258;SDS011;11798;51.528;7.240;2023-07-31T14:04:05;4.13;;;3.57;;
23258;SDS011;11798;51.528;7.240;2023-07-31T14:06:31;5.47;;;3.60;;
23258;SDS011;11798;51.528;7.240;2023-07-31T14:08:57;5.80;;;3.60;;
23258;SDS011;11798;51.528;7.240;2023-07-31T14:11:22;4.53;;;3.10;;
23258;SDS011;11798;51.528;7.240;2023-07-31T14:13:49;5.73;;;3.53;;
23258;SDS011;11798;51.528;7.240;2023-07-31T14:16:15;3.87;;;3.03;;
23258;SDS011;11798;51.528;7.240;2023-07-31T14:18:41;6.63;;;3.77;;
23258;SDS011;11798;51.528;7.240;2023-07-31T14:21:07;4.80;;;3.47;;
23258;SDS011;11798;51.528;7.240;2023-07-31T14:23:33;4.80;;;3.57;;
23258;SDS011;11798;51.528;7.240;2023-07-31T14:25:59;5.63;;;3.37;;
23258;SDS011;11798;51.528;7.240;2023-07-31T14:28:24;3.90;;;3.03;;
23258;SDS011;11798;51.528;7.240;2023-07-31T14:30:50;4.47;;;3.30;;
23258;SDS011;11798;51.528;7.240;2023-07-31T14:33:16;3.97;;;3.50;;
23258;SDS011;11798;51.528;7.240;2023-07-31T14:35:41;4.93;;;3.60;;
23258;SDS011;11798;51.528;7.240;2023-07-31T14:38:07;5.80;;;3.70;;
23258;SDS011;11798;51.528;7.240;2023-07-31T14:40:33;5.23;;;3.57;;
23258;SDS011;11798;51.528;7.240;2023-07-31T14:42:58;5.33;;;3.93;;
23258;SDS011;11798;51.528;7.240;2023-07-31T14:45:24;6.17;;;4.00;;
23258;SDS011;11798;51.528;7.240;2023-07-31T14:47:50;5.57;;;3.70;;
23258;SDS011;11798;51.528;7.240;2023-07-31T14:50:15;7.77;;;4.53;;
23258;SDS011;11798;51.528;7.240;2023-07-31T14:52:41;5.80;;;4.00;;